sensor_id;sensor_type;location;lat;lon;timestamp;P1;durP1;ratioP1;P2;durP2;ratioP2
62633;SDS011;48704;50.534;6.442;2023-07-08T00:02:10;14.98;;;8.27;;
62633;SDS011;48704;50.534;6.442;2023-07-08T00:04:37;15.63;;;7.40;;
62633;SDS011;48704;50.534;6.442;2023-07-08T00:07:03;15.98;;;8.18;;
62633;SDS011;48704;50.534;6.442;2023-07-08T00:09:29;16.90;;;7.13;;
62633;SDS011;48704;50.534;6.442;2023-07-08T00:11:55;13.57;;;7.28;;
62633;SDS011;48704;50.534;6.442;2023-07-08T00:14:22;15.95;;;7.00;;
62633;SDS011;48704;50.534;6.442;2023-07-08T00:16:47;12.50;;;7.97;;
62633;SDS011;48704;50.534;6.442;2023-07-08T00:19:12;16.38;;;7.95;;
62633;SDS011;48704;50.534;6.442;2023-07-08T00:21:38;16.20;;;7.95;;
62633;SDS011;48704;50.534;6.442;2023-07-08T00:24:04;15.02;;;8.10;;
62633;SDS011;48704;50.534;6.442;2023-07-08T00:26:30;12.30;;;7.47;;
62633;SDS011;48704;50.534;6.442;2023-07-08T00:28:56;14.48;;;7.80;;
62633;SDS011;48704;50.534;6.442;2023-07-08T00:31:22;13.77;;;6.97;;
62633;SDS011;48704;50.534;6.442;2023-07-08T00:33:51;12.90;;;7.07;;
62633;SDS011;48704;50.534;6.442;2023-07-08T00:36:20;14.93;;;7.57;;
62633;SDS011;48704;50.534;6.442;2023-07-08T00:38:45;13.82;;;7.85;;
62633;SDS011;48704;50.534;6.442;2023-07-08T00:41:12;13.93;;;7.70;;
62633;SDS011;48704;50.534;6.442;2023-07-08T00:43:44;16.08;;;8.02;;
62633;SDS011;48704;50.534;6.442;2023-07-08T00:48:50;13.35;;;7.65;;
62633;SDS011;48704;50.534;6.442;2023-07-08T00:51:19;13.25;;;7.78;;
62633;SDS011;48704;50.534;6.442;2023-07-08T00:53:45;15.85;;;7.72;;
62633;SDS011;48704;50.534;6.442;2023-07-08T00:59:12;13.25;;;7.85;;
62633;SDS011;48704;50.534;6.442;2023-07-08T01:01:52;17.42;;;8.38;;
62633;SDS011;48704;50.534;6.442;2023-07-08T01:04:24;14.48;;;8.07;;
62633;SDS011;48704;50.534;6.442;2023-07-08T01:06:55;14.40;;;7.07;;
62633;SDS011;48704;50.534;6.442;2023-07-08T01:09:27;16.48;;;8.52;;
62633;SDS011;48704;50.534;6.442;2023-07-08T01:11:57;16.15;;;8.00;;
62633;SDS011;48704;50.534;6.442;2023-07-08T01:14:26;15.35;;;8.23;;
62633;SDS011;48704;50.534;6.442;2023-07-08T01:16:56;17.70;;;7.82;;
62633;SDS011;48704;50.534;6.442;2023-07-08T01:19:22;16.35;;;8.95;;
62633;SDS011;48704;50.534;6.442;2023-07-08T01:24:23;13.38;;;7.72;;
62633;SDS011;48704;50.534;6.442;2023-07-08T01:26:49;13.80;;;7.55;;
62633;SDS011;48704;50.534;6.442;2023-07-08T01:29:14;15.80;;;7.57;;
62633;SDS011;48704;50.534;6.442;2023-07-08T01:31:40;16.48;;;7.57;;
62633;SDS011;48704;50.534;6.442;2023-07-08T01:34:05;14.23;;;7.78;;
62633;SDS011;48704;50.534;6.442;2023-07-08T01:36:37;13.63;;;7.18;;
62633;SDS011;48704;50.534;6.442;2023-07-08T01:39:09;12.75;;;7.00;;
62633;SDS011;48704;50.534;6.442;2023-07-08T01:41:37;13.40;;;7.05;;
62633;SDS011;48704;50.534;6.442;2023-07-08T01:44:03;16.10;;;7.15;;
62633;SDS011;48704;50.534;6.442;2023-07-08T01:46:28;14.30;;;7.05;;
62633;SDS011;48704;50.534;6.442;2023-07-08T01:48:57;15.13;;;7.88;;
62633;SDS011;48704;50.534;6.442;2023-07-08T01:51:24;12.80;;;6.72;;
62633;SDS011;48704;50.534;6.442;2023-07-08T01:53:51;13.60;;;7.28;;
62633;SDS011;48704;50.534;6.442;2023-07-08T01:56:17;11.95;;;6.75;;
62633;SDS011;48704;50.534;6.442;2023-07-08T01:58:42;13.52;;;7.85;;
62633;SDS011;48704;50.534;6.442;2023-07-08T02:01:08;14.60;;;7.55;;
62633;SDS011;48704;50.534;6.442;2023-07-08T02:03:34;14.80;;;7.40;;
62633;SDS011;48704;50.534;6.442;2023-07-08T02:06:00;15.75;;;7.82;;
62633;SDS011;48704;50.534;6.442;2023-07-08T02:08:25;10.95;;;6.47;;
62633;SDS011;48704;50.534;6.442;2023-07-08T02:10:52;16.05;;;7.00;;
62633;SDS011;48704;50.534;6.442;2023-07-08T02:13:20;12.60;;;6.72;;
62633;SDS011;48704;50.534;6.442;2023-07-08T02:15:46;16.80;;;7.57;;
62633;SDS011;48704;50.534;6.442;2023-07-08T02:18:11;14.00;;;7.40;;
62633;SDS011;48704;50.534;6.442;2023-07-08T02:20:36;14.40;;;7.55;;
62633;SDS011;48704;50.534;6.442;2023-07-08T02:23:02;14.25;;;7.00;;
62633;SDS011;48704;50.534;6.442;2023-07-08T02:25:27;13.32;;;6.78;;
62633;SDS011;48704;50.534;6.442;2023-07-08T02:27:53;14.13;;;7.57;;
62633;SDS011;48704;50.534;6.442;2023-07-08T02:30:22;14.63;;;7.60;;
62633;SDS011;48704;50.534;6.442;2023-07-08T02:32:47;15.30;;;7.22;;
62633;SDS011;48704;50.534;6.442;2023-07-08T02:35:21;13.93;;;7.20;;
62633;SDS011;48704;50.534;6.442;2023-07-08T02:37:46;13.25;;;6.25;;
62633;SDS011;48704;50.534;6.442;2023-07-08T02:40:12;13.43;;;7.20;;
62633;SDS011;48704;50.534;6.442;2023-07-08T02:42:39;14.90;;;7.32;;
62633;SDS011;48704;50.534;6.442;2023-07-08T02:45:04;12.20;;;6.63;;
62633;SDS011;48704;50.534;6.442;2023-07-08T02:47:30;13.27;;;7.10;;
62633;SDS011;48704;50.534;6.442;2023-07-08T02:49:55;14.32;;;7.85;;
62633;SDS011;48704;50.534;6.442;2023-07-08T02:52:20;15.40;;;8.13;;
62633;SDS011;48704;50.534;6.442;2023-07-08T02:54:46;13.60;;;6.95;;
62633;SDS011;48704;50.534;6.442;2023-07-08T02:57:11;13.90;;;6.83;;
62633;SDS011;48704;50.534;6.442;2023-07-08T02:59:36;13.32;;;6.97;;
62633;SDS011;48704;50.534;6.442;2023-07-08T03:02:01;14.00;;;6.63;;
62633;SDS011;48704;50.534;6.442;2023-07-08T03:04:27;15.43;;;7.65;;
62633;SDS011;48704;50.534;6.442;2023-07-08T03:06:52;12.63;;;7.13;;
62633;SDS011;48704;50.534;6.442;2023-07-08T03:09:18;12.65;;;6.72;;
62633;SDS011;48704;50.534;6.442;2023-07-08T03:11:43;15.90;;;7.63;;
62633;SDS011;48704;50.534;6.442;2023-07-08T03:14:08;12.75;;;6.63;;
62633;SDS011;48704;50.534;6.442;2023-07-08T03:16:34;14.23;;;7.28;;
62633;SDS011;48704;50.534;6.442;2023-07-08T03:18:59;13.38;;;7.05;;
62633;SDS011;48704;50.534;6.442;2023-07-08T03:21:25;14.93;;;7.25;;
62633;SDS011;48704;50.534;6.442;2023-07-08T03:23:51;12.00;;;6.43;;
62633;SDS011;48704;50.534;6.442;2023-07-08T03:26:18;15.10;;;7.93;;
62633;SDS011;48704;50.534;6.442;2023-07-08T03:28:46;16.10;;;7.88;;
62633;SDS011;48704;50.534;6.442;2023-07-08T03:31:12;14.10;;;6.82;;
62633;SDS011;48704;50.534;6.442;2023-07-08T03:33:38;15.15;;;7.25;;
62633;SDS011;48704;50.534;6.442;2023-07-08T03:36:24;13.18;;;6.47;;
62633;SDS011;48704;50.534;6.442;2023-07-08T03:38:49;14.50;;;7.80;;
62633;SDS011;48704;50.534;6.442;2023-07-08T03:41:15;13.90;;;6.95;;
62633;SDS011;48704;50.534;6.442;2023-07-08T03:43:41;13.90;;;7.35;;
62633;SDS011;48704;50.534;6.442;2023-07-08T03:46:07;13.20;;;7.68;;
62633;SDS011;48704;50.534;6.442;2023-07-08T03:48:35;12.80;;;6.97;;
62633;SDS011;48704;50.534;6.442;2023-07-08T03:51:00;13.80;;;6.60;;
62633;SDS011;48704;50.534;6.442;2023-07-08T03:53:25;13.02;;;6.82;;
62633;SDS011;48704;50.534;6.442;2023-07-08T03:55:51;15.90;;;7.28;;
62633;SDS011;48704;50.534;6.442;2023-07-08T03:58:16;14.48;;;7.82;;
62633;SDS011;48704;50.534;6.442;2023-07-08T04:00:41;12.77;;;6.70;;
62633;SDS011;48704;50.534;6.442;2023-07-08T04:03:07;14.38;;;7.65;;
62633;SDS011;48704;50.534;6.442;2023-07-08T04:05:35;14.30;;;7.15;;
62633;SDS011;48704;50.534;6.442;2023-07-08T04:08:01;13.85;;;7.63;;
62633;SDS011;48704;50.534;6.442;2023-07-08T04:10:26;15.23;;;7.10;;
62633;SDS011;48704;50.534;6.442;2023-07-08T04:12:51;12.10;;;6.55;;
62633;SDS011;48704;50.534;6.442;2023-07-08T04:15:17;12.63;;;6.57;;
62633;SDS011;48704;50.534;6.442;2023-07-08T04:17:43;12.73;;;6.75;;
62633;SDS011;48704;50.534;6.442;2023-07-08T04:20:13;13.10;;;7.22;;
62633;SDS011;48704;50.534;6.442;2023-07-08T04:22:40;11.90;;;6.80;;
62633;SDS011;48704;50.534;6.442;2023-07-08T04:25:05;12.75;;;6.78;;
62633;SDS011;48704;50.534;6.442;2023-07-08T04:27:31;12.95;;;6.72;;
62633;SDS011;48704;50.534;6.442;2023-07-08T04:29:57;13.15;;;7.00;;
62633;SDS011;48704;50.534;6.442;2023-07-08T04:32:22;12.52;;;7.00;;
62633;SDS011;48704;50.534;6.442;2023-07-08T04:34:49;17.27;;;7.82;;
62633;SDS011;48704;50.534;6.442;2023-07-08T04:37:15;16.20;;;7.72;;
62633;SDS011;48704;50.534;6.442;2023-07-08T04:39:41;14.40;;;7.00;;
62633;SDS011;48704;50.534;6.442;2023-07-08T04:42:06;15.07;;;7.40;;
62633;SDS011;48704;50.534;6.442;2023-07-08T04:44:31;12.15;;;6.63;;
62633;SDS011;48704;50.534;6.442;2023-07-08T04:46:57;14.32;;;6.53;;
62633;SDS011;48704;50.534;6.442;2023-07-08T04:49:23;13.55;;;6.50;;
62633;SDS011;48704;50.534;6.442;2023-07-08T04:51:50;14.60;;;6.90;;
62633;SDS011;48704;50.534;6.442;2023-07-08T04:54:16;12.40;;;7.18;;
62633;SDS011;48704;50.534;6.442;2023-07-08T04:56:43;13.48;;;7.07;;
62633;SDS011;48704;50.534;6.442;2023-07-08T04:59:12;10.90;;;6.13;;
62633;SDS011;48704;50.534;6.442;2023-07-08T05:01:42;15.88;;;8.00;;
62633;SDS011;48704;50.534;6.442;2023-07-08T05:04:09;14.63;;;6.65;;
62633;SDS011;48704;50.534;6.442;2023-07-08T05:06:37;14.15;;;6.57;;
62633;SDS011;48704;50.534;6.442;2023-07-08T05:09:03;14.80;;;7.18;;
62633;SDS011;48704;50.534;6.442;2023-07-08T05:11:29;11.68;;;6.10;;
62633;SDS011;48704;50.534;6.442;2023-07-08T05:13:55;14.55;;;6.95;;
62633;SDS011;48704;50.534;6.442;2023-07-08T05:16:20;15.32;;;6.85;;
62633;SDS011;48704;50.534;6.442;2023-07-08T05:18:46;11.63;;;6.28;;
62633;SDS011;48704;50.534;6.442;2023-07-08T05:21:12;12.68;;;6.45;;
62633;SDS011;48704;50.534;6.442;2023-07-08T05:23:37;14.20;;;6.63;;
62633;SDS011;48704;50.534;6.442;2023-07-08T05:26:03;10.95;;;5.82;;
62633;SDS011;48704;50.534;6.442;2023-07-08T05:28:30;12.93;;;5.80;;
62633;SDS011;48704;50.534;6.442;2023-07-08T05:30:56;12.05;;;6.43;;
62633;SDS011;48704;50.534;6.442;2023-07-08T05:33:22;12.60;;;6.57;;
62633;SDS011;48704;50.534;6.442;2023-07-08T05:35:49;13.95;;;6.35;;
62633;SDS011;48704;50.534;6.442;2023-07-08T05:38:14;16.00;;;7.32;;
62633;SDS011;48704;50.534;6.442;2023-07-08T05:40:39;13.45;;;6.68;;
62633;SDS011;48704;50.534;6.442;2023-07-08T05:43:05;12.15;;;5.97;;
62633;SDS011;48704;50.534;6.442;2023-07-08T05:45:31;11.95;;;6.00;;
62633;SDS011;48704;50.534;6.442;2023-07-08T05:47:56;11.77;;;6.10;;
62633;SDS011;48704;50.534;6.442;2023-07-08T05:50:21;13.87;;;6.47;;
62633;SDS011;48704;50.534;6.442;2023-07-08T05:52:47;10.93;;;5.65;;
62633;SDS011;48704;50.534;6.442;2023-07-08T05:55:12;13.13;;;6.13;;
62633;SDS011;48704;50.534;6.442;2023-07-08T05:57:37;12.77;;;6.03;;
62633;SDS011;48704;50.534;6.442;2023-07-08T06:00:03;12.80;;;6.40;;
62633;SDS011;48704;50.534;6.442;2023-07-08T06:02:29;11.80;;;6.32;;
62633;SDS011;48704;50.534;6.442;2023-07-08T06:04:55;11.05;;;5.68;;
62633;SDS011;48704;50.534;6.442;2023-07-08T06:07:20;10.88;;;5.75;;
62633;SDS011;48704;50.534;6.442;2023-07-08T06:09:45;10.98;;;5.78;;
62633;SDS011;48704;50.534;6.442;2023-07-08T06:12:11;12.30;;;6.20;;
62633;SDS011;48704;50.534;6.442;2023-07-08T06:14:36;10.70;;;5.90;;
62633;SDS011;48704;50.534;6.442;2023-07-08T06:17:02;13.23;;;6.55;;
62633;SDS011;48704;50.534;6.442;2023-07-08T06:19:27;11.05;;;5.63;;
62633;SDS011;48704;50.534;6.442;2023-07-08T06:21:53;11.13;;;5.93;;
62633;SDS011;48704;50.534;6.442;2023-07-08T06:24:18;10.50;;;5.78;;
62633;SDS011;48704;50.534;6.442;2023-07-08T06:26:43;11.03;;;6.10;;
62633;SDS011;48704;50.534;6.442;2023-07-08T06:29:08;9.67;;;5.80;;
62633;SDS011;48704;50.534;6.442;2023-07-08T06:31:34;10.90;;;6.00;;
62633;SDS011;48704;50.534;6.442;2023-07-08T06:34:00;15.20;;;6.18;;
62633;SDS011;48704;50.534;6.442;2023-07-08T06:36:26;10.95;;;6.03;;
62633;SDS011;48704;50.534;6.442;2023-07-08T06:38:51;11.38;;;5.47;;
62633;SDS011;48704;50.534;6.442;2023-07-08T06:41:16;11.52;;;5.93;;
62633;SDS011;48704;50.534;6.442;2023-07-08T06:43:41;11.68;;;5.50;;
62633;SDS011;48704;50.534;6.442;2023-07-08T06:46:07;9.38;;;5.60;;
62633;SDS011;48704;50.534;6.442;2023-07-08T06:48:32;10.75;;;5.90;;
62633;SDS011;48704;50.534;6.442;2023-07-08T06:50:58;12.18;;;5.68;;
62633;SDS011;48704;50.534;6.442;2023-07-08T06:53:23;14.18;;;6.07;;
62633;SDS011;48704;50.534;6.442;2023-07-08T06:55:49;10.77;;;5.88;;
62633;SDS011;48704;50.534;6.442;2023-07-08T06:58:15;10.07;;;4.75;;
62633;SDS011;48704;50.534;6.442;2023-07-08T07:00:43;11.88;;;5.45;;
62633;SDS011;48704;50.534;6.442;2023-07-08T07:03:10;10.10;;;5.47;;
62633;SDS011;48704;50.534;6.442;2023-07-08T07:05:35;11.27;;;5.20;;
62633;SDS011;48704;50.534;6.442;2023-07-08T07:08:01;9.40;;;4.45;;
62633;SDS011;48704;50.534;6.442;2023-07-08T07:10:26;10.85;;;4.82;;
62633;SDS011;48704;50.534;6.442;2023-07-08T07:12:52;9.93;;;5.10;;
62633;SDS011;48704;50.534;6.442;2023-07-08T07:15:17;9.27;;;5.13;;
62633;SDS011;48704;50.534;6.442;2023-07-08T07:17:42;10.93;;;5.35;;
62633;SDS011;48704;50.534;6.442;2023-07-08T07:20:08;8.15;;;4.55;;
62633;SDS011;48704;50.534;6.442;2023-07-08T07:22:33;7.78;;;4.35;;
62633;SDS011;48704;50.534;6.442;2023-07-08T07:24:59;10.95;;;4.78;;
62633;SDS011;48704;50.534;6.442;2023-07-08T07:27:24;7.47;;;4.05;;
62633;SDS011;48704;50.534;6.442;2023-07-08T07:29:50;11.20;;;4.37;;
62633;SDS011;48704;50.534;6.442;2023-07-08T07:32:17;9.05;;;4.43;;
62633;SDS011;48704;50.534;6.442;2023-07-08T07:34:45;10.75;;;4.80;;
62633;SDS011;48704;50.534;6.442;2023-07-08T07:37:13;8.82;;;4.90;;
62633;SDS011;48704;50.534;6.442;2023-07-08T07:39:39;10.27;;;4.80;;
62633;SDS011;48704;50.534;6.442;2023-07-08T07:42:05;8.25;;;4.00;;
62633;SDS011;48704;50.534;6.442;2023-07-08T07:44:31;10.70;;;4.25;;
62633;SDS011;48704;50.534;6.442;2023-07-08T07:46:56;7.47;;;4.47;;
62633;SDS011;48704;50.534;6.442;2023-07-08T07:49:21;9.53;;;4.70;;
62633;SDS011;48704;50.534;6.442;2023-07-08T07:51:47;8.73;;;4.72;;
62633;SDS011;48704;50.534;6.442;2023-07-08T07:54:13;8.88;;;4.57;;
62633;SDS011;48704;50.534;6.442;2023-07-08T07:56:39;9.70;;;4.20;;
62633;SDS011;48704;50.534;6.442;2023-07-08T07:59:04;8.10;;;3.92;;
62633;SDS011;48704;50.534;6.442;2023-07-08T08:01:29;11.45;;;5.32;;
62633;SDS011;48704;50.534;6.442;2023-07-08T08:03:55;9.63;;;4.30;;
62633;SDS011;48704;50.534;6.442;2023-07-08T08:06:20;9.80;;;4.38;;
62633;SDS011;48704;50.534;6.442;2023-07-08T08:08:45;10.43;;;4.85;;
62633;SDS011;48704;50.534;6.442;2023-07-08T08:11:11;10.40;;;4.35;;
62633;SDS011;48704;50.534;6.442;2023-07-08T08:13:37;8.30;;;4.18;;
62633;SDS011;48704;50.534;6.442;2023-07-08T08:16:02;9.07;;;4.18;;
62633;SDS011;48704;50.534;6.442;2023-07-08T08:18:28;8.77;;;4.30;;
62633;SDS011;48704;50.534;6.442;2023-07-08T08:20:54;7.88;;;4.13;;
62633;SDS011;48704;50.534;6.442;2023-07-08T08:23:19;8.57;;;4.23;;
62633;SDS011;48704;50.534;6.442;2023-07-08T08:25:44;12.02;;;4.38;;
62633;SDS011;48704;50.534;6.442;2023-07-08T08:28:09;12.43;;;5.05;;
62633;SDS011;48704;50.534;6.442;2023-07-08T08:30:35;11.27;;;5.07;;
62633;SDS011;48704;50.534;6.442;2023-07-08T08:33:00;10.43;;;5.20;;
62633;SDS011;48704;50.534;6.442;2023-07-08T08:35:27;11.27;;;4.95;;
62633;SDS011;48704;50.534;6.442;2023-07-08T08:37:52;8.70;;;4.90;;
62633;SDS011;48704;50.534;6.442;2023-07-08T08:40:18;9.65;;;5.43;;
62633;SDS011;48704;50.534;6.442;2023-07-08T08:42:45;10.48;;;4.93;;
62633;SDS011;48704;50.534;6.442;2023-07-08T08:45:18;8.60;;;4.80;;
62633;SDS011;48704;50.534;6.442;2023-07-08T08:47:47;9.80;;;4.68;;
62633;SDS011;48704;50.534;6.442;2023-07-08T08:52:53;10.68;;;5.05;;
62633;SDS011;48704;50.534;6.442;2023-07-08T08:55:20;9.30;;;4.85;;
62633;SDS011;48704;50.534;6.442;2023-07-08T08:57:55;10.30;;;5.05;;
62633;SDS011;48704;50.534;6.442;2023-07-08T09:00:29;11.93;;;5.80;;
62633;SDS011;48704;50.534;6.442;2023-07-08T09:03:09;10.32;;;5.22;;
62633;SDS011;48704;50.534;6.442;2023-07-08T09:05:38;13.55;;;5.57;;
62633;SDS011;48704;50.534;6.442;2023-07-08T09:08:04;9.43;;;5.30;;
62633;SDS011;48704;50.534;6.442;2023-07-08T09:10:58;10.23;;;5.53;;
62633;SDS011;48704;50.534;6.442;2023-07-08T09:13:31;8.90;;;4.90;;
62633;SDS011;48704;50.534;6.442;2023-07-08T09:16:05;10.88;;;5.15;;
62633;SDS011;48704;50.534;6.442;2023-07-08T09:18:32;9.10;;;5.03;;
62633;SDS011;48704;50.534;6.442;2023-07-08T09:21:05;13.70;;;4.90;;
62633;SDS011;48704;50.534;6.442;2023-07-08T09:23:41;9.77;;;5.22;;
62633;SDS011;48704;50.534;6.442;2023-07-08T09:26:10;9.73;;;4.93;;
62633;SDS011;48704;50.534;6.442;2023-07-08T09:28:42;9.10;;;5.22;;
62633;SDS011;48704;50.534;6.442;2023-07-08T09:31:10;9.63;;;5.07;;
62633;SDS011;48704;50.534;6.442;2023-07-08T09:33:46;10.13;;;5.45;;
62633;SDS011;48704;50.534;6.442;2023-07-08T09:36:19;9.93;;;5.37;;
62633;SDS011;48704;50.534;6.442;2023-07-08T09:38:49;14.68;;;5.97;;
62633;SDS011;48704;50.534;6.442;2023-07-08T09:41:31;11.60;;;5.50;;
62633;SDS011;48704;50.534;6.442;2023-07-08T09:44:05;9.98;;;5.38;;
62633;SDS011;48704;50.534;6.442;2023-07-08T09:46:42;8.52;;;4.68;;
62633;SDS011;48704;50.534;6.442;2023-07-08T09:49:54;12.93;;;5.50;;
62633;SDS011;48704;50.534;6.442;2023-07-08T09:52:00;10.20;;;5.18;;
62633;SDS011;48704;50.534;6.442;2023-07-08T09:54:26;10.75;;;5.70;;
62633;SDS011;48704;50.534;6.442;2023-07-08T09:57:05;11.45;;;5.65;;
62633;SDS011;48704;50.534;6.442;2023-07-08T09:59:47;10.70;;;6.05;;
62633;SDS011;48704;50.534;6.442;2023-07-08T10:02:23;10.35;;;5.55;;
62633;SDS011;48704;50.534;6.442;2023-07-08T10:04:53;10.02;;;5.38;;
62633;SDS011;48704;50.534;6.442;2023-07-08T10:07:29;8.95;;;5.30;;
62633;SDS011;48704;50.534;6.442;2023-07-08T10:09:57;11.73;;;5.75;;
62633;SDS011;48704;50.534;6.442;2023-07-08T10:12:25;10.73;;;5.75;;
62633;SDS011;48704;50.534;6.442;2023-07-08T10:14:57;8.82;;;5.28;;
62633;SDS011;48704;50.534;6.442;2023-07-08T10:17:25;11.20;;;5.35;;
62633;SDS011;48704;50.534;6.442;2023-07-08T10:19:51;8.60;;;5.05;;
62633;SDS011;48704;50.534;6.442;2023-07-08T10:25:26;9.38;;;5.72;;
62633;SDS011;48704;50.534;6.442;2023-07-08T10:27:59;11.32;;;5.75;;
62633;SDS011;48704;50.534;6.442;2023-07-08T10:30:46;10.38;;;5.63;;
62633;SDS011;48704;50.534;6.442;2023-07-08T10:33:36;10.60;;;5.68;;
62633;SDS011;48704;50.534;6.442;2023-07-08T10:47:41;8.98;;;5.25;;
62633;SDS011;48704;50.534;6.442;2023-07-08T11:03:56;9.23;;;5.45;;
62633;SDS011;48704;50.534;6.442;2023-07-08T11:06:37;9.43;;;5.22;;
62633;SDS011;48704;50.534;6.442;2023-07-08T11:09:11;10.02;;;5.65;;
62633;SDS011;48704;50.534;6.442;2023-07-08T11:11:43;8.82;;;5.18;;
62633;SDS011;48704;50.534;6.442;2023-07-08T11:17:59;11.23;;;5.38;;
62633;SDS011;48704;50.534;6.442;2023-07-08T11:28:42;8.70;;;4.60;;
62633;SDS011;48704;50.534;6.442;2023-07-08T11:31:08;10.43;;;5.03;;
62633;SDS011;48704;50.534;6.442;2023-07-08T11:33:35;11.63;;;4.90;;
62633;SDS011;48704;50.534;6.442;2023-07-08T11:36:02;8.50;;;4.43;;
62633;SDS011;48704;50.534;6.442;2023-07-08T11:38:29;10.63;;;5.25;;
62633;SDS011;48704;50.534;6.442;2023-07-08T11:41:02;8.65;;;4.85;;
62633;SDS011;48704;50.534;6.442;2023-07-08T11:46:12;10.85;;;5.22;;
62633;SDS011;48704;50.534;6.442;2023-07-08T11:48:44;9.18;;;4.90;;
62633;SDS011;48704;50.534;6.442;2023-07-08T11:51:22;8.15;;;4.45;;
62633;SDS011;48704;50.534;6.442;2023-07-08T11:53:58;9.77;;;5.43;;
62633;SDS011;48704;50.534;6.442;2023-07-08T11:56:26;10.80;;;5.13;;
62633;SDS011;48704;50.534;6.442;2023-07-08T11:58:57;8.68;;;5.18;;
62633;SDS011;48704;50.534;6.442;2023-07-08T12:07:02;11.68;;;5.13;;
62633;SDS011;48704;50.534;6.442;2023-07-08T12:09:38;8.05;;;4.32;;
62633;SDS011;48704;50.534;6.442;2023-07-08T12:12:16;8.82;;;5.35;;
62633;SDS011;48704;50.534;6.442;2023-07-08T12:14:46;7.20;;;4.68;;
62633;SDS011;48704;50.534;6.442;2023-07-08T12:17:12;10.00;;;4.80;;
62633;SDS011;48704;50.534;6.442;2023-07-08T12:19:37;11.45;;;4.88;;
62633;SDS011;48704;50.534;6.442;2023-07-08T12:22:09;9.43;;;5.07;;
62633;SDS011;48704;50.534;6.442;2023-07-08T12:24:37;10.85;;;5.43;;
62633;SDS011;48704;50.534;6.442;2023-07-08T12:27:03;9.45;;;4.65;;
62633;SDS011;48704;50.534;6.442;2023-07-08T12:29:28;11.95;;;5.30;;
62633;SDS011;48704;50.534;6.442;2023-07-08T12:31:53;11.20;;;5.40;;
62633;SDS011;48704;50.534;6.442;2023-07-08T12:34:19;11.95;;;5.43;;
62633;SDS011;48704;50.534;6.442;2023-07-08T12:36:46;12.57;;;4.97;;
62633;SDS011;48704;50.534;6.442;2023-07-08T12:39:13;10.82;;;4.82;;
62633;SDS011;48704;50.534;6.442;2023-07-08T12:41:41;11.55;;;4.95;;
62633;SDS011;48704;50.534;6.442;2023-07-08T12:44:14;9.10;;;4.78;;
62633;SDS011;48704;50.534;6.442;2023-07-08T12:46:45;10.68;;;4.93;;
62633;SDS011;48704;50.534;6.442;2023-07-08T12:49:12;8.82;;;4.88;;
62633;SDS011;48704;50.534;6.442;2023-07-08T12:51:41;7.55;;;4.50;;
62633;SDS011;48704;50.534;6.442;2023-07-08T12:54:10;9.60;;;4.05;;
62633;SDS011;48704;50.534;6.442;2023-07-08T12:56:36;8.27;;;4.65;;
62633;SDS011;48704;50.534;6.442;2023-07-08T12:59:03;7.97;;;4.28;;
62633;SDS011;48704;50.534;6.442;2023-07-08T13:01:29;7.40;;;5.00;;
62633;SDS011;48704;50.534;6.442;2023-07-08T13:03:59;8.85;;;4.72;;
62633;SDS011;48704;50.534;6.442;2023-07-08T13:06:28;10.02;;;5.30;;
62633;SDS011;48704;50.534;6.442;2023-07-08T13:08:57;8.13;;;5.03;;
62633;SDS011;48704;50.534;6.442;2023-07-08T13:11:31;10.98;;;5.50;;
62633;SDS011;48704;50.534;6.442;2023-07-08T13:13:58;9.55;;;5.22;;
62633;SDS011;48704;50.534;6.442;2023-07-08T13:16:31;10.23;;;5.35;;
62633;SDS011;48704;50.534;6.442;2023-07-08T13:18:59;10.43;;;4.95;;
62633;SDS011;48704;50.534;6.442;2023-07-08T13:21:24;8.82;;;4.72;;
62633;SDS011;48704;50.534;6.442;2023-07-08T13:23:52;8.20;;;4.45;;
62633;SDS011;48704;50.534;6.442;2023-07-08T13:26:19;9.32;;;4.43;;
62633;SDS011;48704;50.534;6.442;2023-07-08T13:28:46;11.05;;;4.55;;
62633;SDS011;48704;50.534;6.442;2023-07-08T13:33:48;9.77;;;4.60;;
62633;SDS011;48704;50.534;6.442;2023-07-08T13:36:15;10.52;;;5.18;;
62633;SDS011;48704;50.534;6.442;2023-07-08T13:38:42;9.35;;;4.85;;
62633;SDS011;48704;50.534;6.442;2023-07-08T13:41:08;9.15;;;4.65;;
62633;SDS011;48704;50.534;6.442;2023-07-08T13:43:35;9.30;;;4.72;;
62633;SDS011;48704;50.534;6.442;2023-07-08T13:46:03;8.27;;;4.57;;
62633;SDS011;48704;50.534;6.442;2023-07-08T13:48:40;7.40;;;4.03;;
62633;SDS011;48704;50.534;6.442;2023-07-08T13:51:16;8.82;;;4.72;;
62633;SDS011;48704;50.534;6.442;2023-07-08T13:53:51;10.48;;;4.85;;
62633;SDS011;48704;50.534;6.442;2023-07-08T13:56:24;8.68;;;5.18;;
62633;SDS011;48704;50.534;6.442;2023-07-08T13:59:07;9.32;;;5.35;;
62633;SDS011;48704;50.534;6.442;2023-07-08T14:01:35;9.00;;;4.95;;
62633;SDS011;48704;50.534;6.442;2023-07-08T14:04:04;8.20;;;4.57;;
62633;SDS011;48704;50.534;6.442;2023-07-08T14:06:31;9.55;;;4.45;;
62633;SDS011;48704;50.534;6.442;2023-07-08T14:09:12;9.50;;;4.60;;
62633;SDS011;48704;50.534;6.442;2023-07-08T14:11:45;10.25;;;4.93;;
62633;SDS011;48704;50.534;6.442;2023-07-08T14:14:12;10.68;;;4.30;;
62633;SDS011;48704;50.534;6.442;2023-07-08T14:16:39;10.95;;;4.60;;
62633;SDS011;48704;50.534;6.442;2023-07-08T14:19:10;8.60;;;4.57;;
62633;SDS011;48704;50.534;6.442;2023-07-08T14:21:38;8.15;;;4.57;;
62633;SDS011;48704;50.534;6.442;2023-07-08T14:24:13;10.50;;;4.63;;
62633;SDS011;48704;50.534;6.442;2023-07-08T14:26:41;10.50;;;5.30;;
62633;SDS011;48704;50.534;6.442;2023-07-08T14:29:07;7.65;;;4.65;;
62633;SDS011;48704;50.534;6.442;2023-07-08T14:31:32;9.48;;;5.20;;
62633;SDS011;48704;50.534;6.442;2023-07-08T14:34:00;10.20;;;4.83;;
62633;SDS011;48704;50.534;6.442;2023-07-08T14:36:30;9.48;;;4.85;;
62633;SDS011;48704;50.534;6.442;2023-07-08T14:38:56;9.30;;;4.85;;
62633;SDS011;48704;50.534;6.442;2023-07-08T14:41:22;9.93;;;4.45;;
62633;SDS011;48704;50.534;6.442;2023-07-08T14:43:48;7.80;;;4.55;;
62633;SDS011;48704;50.534;6.442;2023-07-08T14:46:13;9.93;;;4.80;;
62633;SDS011;48704;50.534;6.442;2023-07-08T14:48:38;8.20;;;5.07;;
62633;SDS011;48704;50.534;6.442;2023-07-08T14:51:04;9.63;;;4.93;;
62633;SDS011;48704;50.534;6.442;2023-07-08T14:53:30;7.90;;;4.37;;
62633;SDS011;48704;50.534;6.442;2023-07-08T14:55:57;9.18;;;4.50;;
62633;SDS011;48704;50.534;6.442;2023-07-08T14:58:28;11.57;;;4.93;;
62633;SDS011;48704;50.534;6.442;2023-07-08T15:00:56;7.05;;;4.28;;
62633;SDS011;48704;50.534;6.442;2023-07-08T15:03:23;10.15;;;4.50;;
62633;SDS011;48704;50.534;6.442;2023-07-08T15:05:52;10.10;;;4.72;;
62633;SDS011;48704;50.534;6.442;2023-07-08T15:08:18;17.58;;;5.28;;
62633;SDS011;48704;50.534;6.442;2023-07-08T15:10:45;11.07;;;5.00;;
62633;SDS011;48704;50.534;6.442;2023-07-08T15:13:14;11.35;;;5.00;;
62633;SDS011;48704;50.534;6.442;2023-07-08T15:15:43;8.65;;;5.20;;
62633;SDS011;48704;50.534;6.442;2023-07-08T15:18:12;11.32;;;4.60;;
62633;SDS011;48704;50.534;6.442;2023-07-08T15:20:40;10.32;;;4.93;;
62633;SDS011;48704;50.534;6.442;2023-07-08T15:23:06;11.63;;;4.78;;
62633;SDS011;48704;50.534;6.442;2023-07-08T15:25:32;10.60;;;4.68;;
62633;SDS011;48704;50.534;6.442;2023-07-08T15:27:59;10.13;;;4.55;;
62633;SDS011;48704;50.534;6.442;2023-07-08T15:30:27;9.63;;;4.78;;
62633;SDS011;48704;50.534;6.442;2023-07-08T15:32:54;9.90;;;4.43;;
62633;SDS011;48704;50.534;6.442;2023-07-08T15:35:21;9.20;;;5.00;;
62633;SDS011;48704;50.534;6.442;2023-07-08T15:37:51;9.15;;;4.60;;
62633;SDS011;48704;50.534;6.442;2023-07-08T15:40:17;8.18;;;4.60;;
62633;SDS011;48704;50.534;6.442;2023-07-08T15:42:44;9.43;;;4.50;;
62633;SDS011;48704;50.534;6.442;2023-07-08T15:45:13;7.53;;;4.30;;